KRID/RID METAR and TAF weather

Enter ICAO airport designator
Station Type Date Time Source
KRID METAR 2020/07/10 18:55 UTC NOAA

KRID 101855Z AUTO 26015G20KT 10SM SCT035 SCT045 BKN060 27/19 A2984 RMK AO2


Station Type Date Time Source
KRID Decoded METAR 2020/07/10 18:55 UTC NOAA

Station name not available
Jul 10, 2020 - 02:55 PM EDT / 2020.07.10 1855 UTC
Wind: from the W (260 degrees) at 17 MPH (15 KT) gusting to 23 MPH (20 KT):0
Visibility: 10 mile(s):0
Sky conditions: mostly cloudy
Temperature: 80 F (27 C)
Dew Point: 66 F (19 C)
Relative Humidity: 61%
Pressure (altimeter): 29.84 in. Hg (1010 hPa)
ob: KRID 101855Z AUTO 26015G20KT 10SM SCT035 SCT045 BKN060 27/19 A2984 RMK AO2
cycle: 19

Station Type Date Time Source
KRID TAF UTC NOAA

Error!

Example: see airport list